Terminal Aerodrome Forecast
Issued by NWS

Home | Current Version | Previous Version | Text Only | Print | Product List | Glossary On
Versions: 1 2 3 4 5 6 7 8 9 10 11 12 13 14 15 16 17 18 19 20 21 22 23 24 25 26 27 28 29 30
000
FTUS42 KGSP 041205 AAA
TAFGMU
TAF AMD
KGMU 041205Z 0412/0512 24010KT P6SM -SHRA SCT025 OVC060
     FM041500 24012G20KT P6SM SCT035 BKN070
     FM042100 24014G24KT P6SM -SHRA VCTS SCT040 BKN120CB
     FM050000 24008KT P6SM BKN110 OVC250
     FM050800 25004KT P6SM BKN110 OVC250
     FM051000 00000KT P6SM OVC110=

USA.gov is the U.S. government's official web portal to all federal, state and local government web resources and services.